Time;durP1;ratioP1;P1;durP2;ratioP2;P2;SDS_P1;SDS_P2;PMS_P1;PMS_P2;Temp;Humidity;BMP_temperature;BMP_pressure;BME280_temperature;BME280_humidity;BME280_pressure;Samples;Min_cycle;Max_cycle;Signal;HPM_P1;HPM_P2
2023/01/15 00:01:30;;;;;;;3.50;3.00;;;10.70;99.90;;;;;;5052450;28;20536;-68
2023/01/15 00:03:57;;;;;;;2.90;2.70;;;10.50;99.90;;;;;;5053164;28;20223;-66
2023/01/15 00:06:24;;;;;;;3.90;3.70;;;10.40;99.90;;;;;;5053500;28;20429;-66
2023/01/15 00:08:50;;;;;;;3.47;2.70;;;10.20;99.90;;;;;;5053041;28;21064;-67
2023/01/15 00:11:16;;;;;;;3.53;3.10;;;10.10;99.90;;;;;;5054363;28;20487;-67
2023/01/15 00:13:43;;;;;;;2.93;2.80;;;9.90;99.90;;;;;;5053290;28;20920;-64
2023/01/15 00:16:14;;;;;;;3.00;2.90;;;9.80;99.90;;;;;;5052959;28;20492;-66
2023/01/15 00:18:40;;;;;;;3.00;2.90;;;9.70;99.90;;;;;;5052574;28;20433;-66
2023/01/15 00:21:09;;;;;;;3.07;2.90;;;9.70;99.90;;;;;;5054917;28;20416;-66
2023/01/15 00:29:06;;;;;;;2.87;2.70;;;9.60;99.90;;;;;;5054061;28;20428;-67
2023/01/15 00:31:34;;;;;;;3.10;2.97;;;9.50;99.90;;;;;;5052813;28;20404;-67
2023/01/15 00:34:00;;;;;;;2.70;2.60;;;9.60;99.90;;;;;;5051911;28;20435;-64
2023/01/15 00:36:26;;;;;;;4.77;3.10;;;9.50;99.90;;;;;;5053056;28;21019;-65
2023/01/15 00:38:52;;;;;;;2.83;2.73;;;9.50;99.90;;;;;;5054009;28;20576;-66
2023/01/15 00:41:18;;;;;;;3.10;2.90;;;9.50;99.90;;;;;;5054619;28;20226;-66
2023/01/15 00:43:43;;;;;;;3.10;2.90;;;9.50;99.90;;;;;;5052251;28;20437;-64
2023/01/15 00:46:09;;;;;;;3.40;3.10;;;9.60;99.90;;;;;;5053487;28;20813;-66
2023/01/15 00:48:36;;;;;;;3.00;2.80;;;9.60;99.90;;;;;;5051209;28;20213;-66
2023/01/15 00:51:02;;;;;;;2.67;2.57;;;9.60;99.90;;;;;;5051287;28;20220;-65
2023/01/15 00:53:28;;;;;;;3.83;3.03;;;9.60;99.90;;;;;;5050074;28;20434;-65
2023/01/15 00:55:54;;;;;;;2.90;2.80;;;9.60;99.90;;;;;;5052219;28;20818;-64
2023/01/15 00:58:20;;;;;;;2.93;2.83;;;9.60;99.90;;;;;;5053525;28;20940;-65
2023/01/15 01:00:45;;;;;;;3.37;3.17;;;9.60;99.90;;;;;;5052257;28;20247;-65
2023/01/15 01:03:11;;;;;;;2.83;2.63;;;9.70;99.90;;;;;;5053368;28;20190;-65
2023/01/15 01:05:39;;;;;;;3.30;3.10;;;9.70;99.90;;;;;;5047336;28;20193;-66
2023/01/15 01:08:04;;;;;;;3.60;3.30;;;9.70;99.90;;;;;;5052639;28;20256;-66
2023/01/15 01:10:30;;;;;;;3.40;3.03;;;9.70;99.90;;;;;;5051279;28;20822;-65
2023/01/15 01:12:56;;;;;;;3.40;3.10;;;9.70;99.90;;;;;;5052099;28;20182;-65
2023/01/15 01:15:24;;;;;;;3.47;3.30;;;9.60;99.90;;;;;;5053741;28;20244;-66
2023/01/15 01:17:50;;;;;;;3.23;3.00;;;9.60;99.90;;;;;;5053363;28;20185;-65
2023/01/15 01:20:16;;;;;;;3.70;3.10;;;9.70;99.90;;;;;;5035236;28;20447;-65
2023/01/15 01:22:42;;;;;;;3.30;3.10;;;9.60;99.90;;;;;;5051176;28;20926;-65
2023/01/15 01:25:09;;;;;;;3.10;3.00;;;9.60;99.90;;;;;;5053471;28;20496;-65
2023/01/15 01:27:35;;;;;;;2.97;2.80;;;9.70;99.90;;;;;;5052696;28;20183;-65
2023/01/15 01:30:01;;;;;;;3.20;3.00;;;9.80;99.90;;;;;;5051607;28;20428;-65
2023/01/15 01:32:26;;;;;;;3.13;2.77;;;9.70;99.90;;;;;;5053353;28;20971;-65
2023/01/15 01:34:52;;;;;;;2.47;2.37;;;9.70;99.90;;;;;;5048155;28;20424;-65
2023/01/15 01:37:18;;;;;;;2.50;2.40;;;9.80;99.90;;;;;;5049021;28;20278;-65
2023/01/15 01:39:44;;;;;;;2.40;2.20;;;9.80;99.90;;;;;;5052540;28;20186;-65
2023/01/15 01:42:15;;;;;;;2.10;2.00;;;9.70;99.90;;;;;;5052587;28;20225;-65
2023/01/15 01:44:44;;;;;;;2.20;2.10;;;9.70;99.90;;;;;;5051513;28;20190;-65
2023/01/15 01:47:19;;;;;;;2.00;1.93;;;9.60;99.90;;;;;;5050884;28;20475;-66
2023/01/15 01:49:48;;;;;;;2.40;2.30;;;9.60;99.90;;;;;;5048647;28;20440;-65
2023/01/15 01:52:24;;;;;;;2.00;2.00;;;9.70;99.90;;;;;;5050252;28;20527;-66
2023/01/15 01:54:51;;;;;;;2.30;2.10;;;9.70;99.90;;;;;;5033451;28;20954;-65
2023/01/15 01:57:19;;;;;;;2.33;2.13;;;9.70;99.90;;;;;;5051844;28;20866;-66
2023/01/15 01:59:46;;;;;;;2.10;2.00;;;9.70;99.90;;;;;;5047916;28;20444;-66
2023/01/15 02:02:12;;;;;;;2.10;2.10;;;9.80;99.90;;;;;;5051144;28;20447;-66
2023/01/15 02:04:40;;;;;;;2.60;2.40;;;9.80;99.90;;;;;;5052162;28;20594;-66
2023/01/15 02:07:06;;;;;;;2.03;1.97;;;9.80;99.90;;;;;;5048924;28;20431;-65
2023/01/15 02:09:32;;;;;;;1.90;1.90;;;9.90;99.90;;;;;;5050795;28;20444;-66
2023/01/15 02:12:07;;;;;;;2.20;2.10;;;9.90;99.90;;;;;;5051018;28;20432;-66
2023/01/15 02:14:58;;;;;;;2.30;2.20;;;9.90;99.90;;;;;;5050411;28;20473;-66
2023/01/15 02:17:42;;;;;;;2.23;2.13;;;9.90;99.90;;;;;;5050195;28;20436;-66
2023/01/15 02:20:20;;;;;;;2.30;2.20;;;9.90;99.90;;;;;;5041566;28;20431;-66
2023/01/15 02:23:37;;;;;;;2.17;2.07;;;9.80;99.90;;;;;;5048901;28;20696;-66
2023/01/15 02:26:40;;;;;;;2.13;1.93;;;9.90;99.90;;;;;;5044187;28;20859;-66
2023/01/15 02:29:12;;;;;;;1.80;1.80;;;9.80;99.90;;;;;;5049490;28;20477;-66
2023/01/15 02:31:42;;;;;;;2.10;2.10;;;9.80;99.90;;;;;;5041435;28;20432;-65
2023/01/15 02:34:26;;;;;;;2.30;2.20;;;9.70;99.90;;;;;;5050267;28;20499;-66
2023/01/15 02:37:07;;;;;;;2.20;2.10;;;9.80;99.90;;;;;;5049705;28;20464;-66
2023/01/15 02:39:37;;;;;;;2.70;2.50;;;9.70;99.90;;;;;;5049486;28;20420;-65
2023/01/15 02:42:06;;;;;;;2.20;2.10;;;9.70;99.90;;;;;;5050467;28;20472;-66
2023/01/15 02:44:35;;;;;;;2.20;2.10;;;9.60;99.90;;;;;;5050239;28;20931;-66
2023/01/15 02:47:04;;;;;;;2.20;2.03;;;9.60;99.90;;;;;;5033475;28;20952;-66
2023/01/15 02:49:31;;;;;;;2.60;2.33;;;9.70;99.90;;;;;;5047598;28;20440;-66
2023/01/15 02:52:00;;;;;;;2.00;2.00;;;9.70;99.90;;;;;;5048350;28;20540;-65
2023/01/15 02:54:32;;;;;;;2.20;2.10;;;9.80;99.90;;;;;;5052347;28;20460;-65
2023/01/15 02:57:01;;;;;;;2.43;2.23;;;9.80;99.90;;;;;;5046032;28;20472;-65
2023/01/15 02:59:33;;;;;;;2.30;2.20;;;9.80;99.90;;;;;;5032604;28;21031;-65
2023/01/15 03:02:02;;;;;;;2.73;2.40;;;9.70;99.90;;;;;;5047399;28;20533;-65
2023/01/15 03:04:45;;;;;;;2.20;2.10;;;9.70;99.90;;;;;;5051072;28;20589;-67
2023/01/15 03:07:20;;;;;;;3.27;2.93;;;9.70;99.90;;;;;;5050367;28;20429;-65
2023/01/15 03:09:47;;;;;;;2.20;2.13;;;9.70;99.90;;;;;;5047731;28;20456;-66
2023/01/15 03:12:21;;;;;;;2.53;2.27;;;9.70;99.90;;;;;;5054051;28;20510;-66
2023/01/15 03:15:05;;;;;;;2.20;2.10;;;9.70;99.90;;;;;;5036496;28;20451;-67
2023/01/15 03:17:54;;;;;;;2.20;2.10;;;9.70;99.90;;;;;;5054585;28;20523;-65
2023/01/15 03:20:24;;;;;;;2.30;2.20;;;9.70;99.90;;;;;;5050911;28;20437;-65
2023/01/15 03:22:58;;;;;;;2.67;2.50;;;9.70;99.90;;;;;;5044893;28;20429;-65
2023/01/15 03:25:28;;;;;;;5.13;2.20;;;9.70;99.90;;;;;;5052912;28;20937;-65
2023/01/15 03:27:58;;;;;;;3.23;2.40;;;9.70;99.90;;;;;;5048999;28;20944;-65
2023/01/15 03:30:24;;;;;;;2.67;2.50;;;9.70;99.90;;;;;;5045565;28;20425;-65
2023/01/15 03:32:52;;;;;;;2.40;2.30;;;9.70;99.90;;;;;;5045093;28;20781;-65
2023/01/15 03:35:44;;;;;;;2.63;2.47;;;9.70;99.90;;;;;;5036733;28;20866;-65
2023/01/15 03:38:18;;;;;;;2.63;2.47;;;9.70;99.90;;;;;;5052868;28;20448;-65
2023/01/15 03:41:14;;;;;;;2.30;2.10;;;9.60;99.90;;;;;;5052362;28;20483;-65
2023/01/15 03:43:43;;;;;;;2.30;2.10;;;9.60;99.90;;;;;;5050642;28;22967;-66
2023/01/15 03:46:40;;;;;;;2.43;2.20;;;9.60;99.90;;;;;;5053881;28;20438;-66
2023/01/15 03:49:13;;;;;;;2.23;2.00;;;9.60;99.90;;;;;;5046895;28;20443;-66
2023/01/15 03:52:01;;;;;;;2.30;2.20;;;9.60;99.90;;;;;;5050209;28;20819;-66
2023/01/15 03:54:38;;;;;;;2.30;2.20;;;9.70;99.90;;;;;;5051566;28;20436;-66
2023/01/15 03:57:19;;;;;;;2.83;2.53;;;9.70;99.90;;;;;;5036003;28;20447;-66
2023/01/15 03:59:54;;;;;;;2.30;2.20;;;9.70;99.90;;;;;;5050683;28;20437;-66
2023/01/15 04:02:22;;;;;;;2.23;2.03;;;9.60;99.90;;;;;;5053554;28;20927;-65
2023/01/15 04:04:49;;;;;;;3.33;2.20;;;9.60;99.90;;;;;;5052244;28;20429;-66
2023/01/15 04:07:15;;;;;;;2.50;2.30;;;9.70;99.90;;;;;;5036273;28;20507;-65
2023/01/15 04:09:41;;;;;;;2.50;2.30;;;9.60;99.90;;;;;;5050884;28;20459;-66
2023/01/15 04:12:07;;;;;;;2.30;2.10;;;9.60;99.90;;;;;;5053076;28;20890;-66
2023/01/15 04:14:33;;;;;;;2.53;2.40;;;9.60;99.90;;;;;;5051530;28;20508;-66
2023/01/15 04:16:59;;;;;;;2.23;2.03;;;9.60;99.90;;;;;;5052043;28;21046;-66
2023/01/15 04:19:25;;;;;;;4.10;2.40;;;9.60;99.90;;;;;;5051708;28;20901;-66
2023/01/15 04:21:51;;;;;;;2.27;2.10;;;9.60;99.90;;;;;;5033342;28;20188;-66
2023/01/15 04:24:16;;;;;;;2.10;2.00;;;9.60;99.90;;;;;;5052771;28;20420;-65
2023/01/15 04:26:42;;;;;;;2.80;2.50;;;9.60;99.90;;;;;;5050890;28;20205;-66
2023/01/15 04:29:08;;;;;;;3.10;2.50;;;9.60;99.90;;;;;;5052483;28;20186;-65
2023/01/15 04:31:35;;;;;;;2.30;2.20;;;9.50;99.90;;;;;;5051636;28;20197;-67
2023/01/15 04:34:01;;;;;;;2.63;2.33;;;9.50;99.90;;;;;;5051400;28;20183;-66
2023/01/15 04:36:28;;;;;;;2.60;2.40;;;9.60;99.90;;;;;;5052386;28;20492;-65
2023/01/15 04:38:56;;;;;;;2.43;2.30;;;9.60;99.90;;;;;;5049543;28;20490;-65
2023/01/15 04:44:07;;;;;;;3.00;2.30;;;9.60;99.90;;;;;;5052642;28;20441;-65
2023/01/15 04:46:35;;;;;;;2.40;2.20;;;9.70;99.90;;;;;;5051456;28;20916;-65
2023/01/15 04:49:01;;;;;;;2.27;2.07;;;9.60;99.90;;;;;;5052933;28;20489;-65
2023/01/15 04:51:27;;;;;;;2.83;2.50;;;9.60;99.90;;;;;;5053343;28;20444;-65
2023/01/15 04:53:53;;;;;;;2.20;2.10;;;9.40;99.90;;;;;;5051359;28;20809;-65
2023/01/15 04:56:19;;;;;;;2.33;2.20;;;9.40;99.90;;;;;;5053118;28;20213;-66
2023/01/15 04:58:44;;;;;;;2.50;2.30;;;9.40;99.90;;;;;;5052064;28;20201;-66
2023/01/15 05:01:15;;;;;;;2.60;2.50;;;9.30;99.90;;;;;;5054008;28;20205;-66
2023/01/15 05:03:41;;;;;;;2.47;2.30;;;9.40;99.90;;;;;;5050987;28;20178;-66
2023/01/15 05:06:08;;;;;;;2.50;2.30;;;9.40;99.90;;;;;;5051772;28;20435;-66
2023/01/15 05:08:33;;;;;;;2.60;2.40;;;9.40;99.90;;;;;;5052562;28;20408;-65
2023/01/15 05:11:06;;;;;;;3.27;2.30;;;9.40;99.90;;;;;;5051966;28;21233;-65
2023/01/15 05:13:32;;;;;;;3.77;2.20;;;9.40;99.90;;;;;;5052105;28;20174;-66
2023/01/15 05:16:08;;;;;;;5.23;2.20;;;9.30;99.90;;;;;;5052860;28;20459;-66
2023/01/15 05:18:34;;;;;;;3.40;2.23;;;9.20;99.90;;;;;;5051617;28;20440;-65
2023/01/15 05:21:00;;;;;;;3.47;2.27;;;9.20;99.90;;;;;;5051299;28;21160;-66
2023/01/15 05:23:25;;;;;;;2.20;2.00;;;9.20;99.90;;;;;;5051384;28;20490;-66
2023/01/15 05:25:51;;;;;;;2.43;2.23;;;9.20;99.90;;;;;;5051961;28;20243;-66
2023/01/15 05:28:18;;;;;;;2.93;2.03;;;9.20;99.90;;;;;;5052593;28;20197;-65
2023/01/15 05:30:44;;;;;;;2.50;2.40;;;9.30;99.90;;;;;;5052681;28;20181;-66
2023/01/15 05:33:09;;;;;;;2.30;2.20;;;9.30;99.90;;;;;;5052488;28;20461;-65
2023/01/15 05:35:35;;;;;;;3.83;2.60;;;9.10;99.90;;;;;;5050259;28;20463;-66
2023/01/15 05:38:04;;;;;;;3.53;2.47;;;9.20;99.90;;;;;;5052094;28;20178;-66
2023/01/15 05:40:30;;;;;;;2.80;2.60;;;9.30;99.90;;;;;;5049082;28;20229;-66
2023/01/15 05:42:56;;;;;;;2.40;2.13;;;9.30;99.90;;;;;;5051388;28;20425;-66
2023/01/15 05:45:22;;;;;;;2.57;2.20;;;9.30;99.90;;;;;;5052330;28;20777;-66
2023/01/15 05:47:47;;;;;;;2.50;2.30;;;9.30;99.90;;;;;;5050153;28;20185;-66
2023/01/15 05:50:13;;;;;;;6.40;2.40;;;9.40;99.90;;;;;;5051671;28;20248;-66
2023/01/15 05:52:39;;;;;;;4.80;2.80;;;9.30;99.90;;;;;;5049854;28;20622;-67
2023/01/15 05:55:05;;;;;;;2.20;2.10;;;9.30;99.90;;;;;;5051131;28;20227;-66
2023/01/15 05:57:31;;;;;;;3.07;2.47;;;9.20;99.90;;;;;;5051413;28;20626;-66
2023/01/15 05:59:58;;;;;;;2.50;2.40;;;9.30;99.90;;;;;;5051218;28;20424;-66
2023/01/15 06:02:23;;;;;;;2.90;2.47;;;9.30;99.90;;;;;;5051712;28;20417;-65
2023/01/15 06:04:49;;;;;;;2.87;2.60;;;9.30;99.90;;;;;;5050388;28;20535;-66
2023/01/15 06:07:18;;;;;;;7.10;3.30;;;9.40;99.90;;;;;;5051560;28;20227;-66
2023/01/15 06:09:44;;;;;;;4.43;2.73;;;9.30;99.90;;;;;;5051845;28;20256;-66
2023/01/15 06:12:09;;;;;;;3.53;2.63;;;9.30;99.90;;;;;;5050565;28;20518;-65
2023/01/15 06:14:35;;;;;;;3.10;2.90;;;9.30;99.90;;;;;;5051410;28;20463;-65
2023/01/15 06:17:02;;;;;;;3.40;3.10;;;9.40;99.90;;;;;;5051725;28;20799;-65
2023/01/15 06:19:28;;;;;;;2.93;2.70;;;9.30;99.90;;;;;;5050428;28;20189;-65
2023/01/15 06:21:53;;;;;;;2.93;2.73;;;9.30;99.90;;;;;;5048990;28;20974;-66
2023/01/15 06:24:19;;;;;;;2.83;2.40;;;9.30;99.90;;;;;;5050238;28;20269;-65
2023/01/15 06:26:45;;;;;;;3.57;3.20;;;9.10;99.90;;;;;;5031207;28;20184;-66
2023/01/15 06:29:12;;;;;;;2.50;2.30;;;9.10;99.90;;;;;;5050641;28;20440;-65
2023/01/15 06:31:37;;;;;;;2.70;2.40;;;9.20;99.90;;;;;;5034089;28;20185;-65
2023/01/15 06:34:03;;;;;;;5.27;2.80;;;9.30;99.90;;;;;;5050926;28;20758;-65
2023/01/15 06:36:29;;;;;;;6.50;2.60;;;9.30;99.90;;;;;;5050770;28;20206;-65
2023/01/15 06:38:55;;;;;;;4.50;2.70;;;9.30;99.90;;;;;;5050494;28;20182;-65
2023/01/15 06:49:43;;;;;;;4.83;2.80;;;9.20;99.90;;;;;;5045546;28;20455;-66
2023/01/15 06:52:09;;;;;;;2.63;2.43;;;9.30;99.90;;;;;;5050528;28;21137;-65
2023/01/15 06:54:35;;;;;;;4.50;2.80;;;9.30;99.90;;;;;;5050771;28;20185;-65
2023/01/15 06:57:01;;;;;;;3.10;2.80;;;9.20;99.90;;;;;;5049012;28;20201;-65
2023/01/15 06:59:28;;;;;;;3.33;2.73;;;9.20;99.90;;;;;;5049713;28;20626;-65
2023/01/15 07:01:54;;;;;;;3.87;2.60;;;9.30;99.90;;;;;;5048820;28;20644;-66
2023/01/15 07:04:19;;;;;;;3.40;2.50;;;9.30;99.90;;;;;;5047146;28;20447;-65
2023/01/15 07:06:45;;;;;;;3.93;2.47;;;9.30;99.90;;;;;;5049361;28;20955;-66
2023/01/15 07:09:12;;;;;;;4.90;2.70;;;9.40;99.90;;;;;;5048643;28;20660;-65
2023/01/15 07:11:55;;;;;;;4.77;2.97;;;9.30;99.90;;;;;;5050432;28;20190;-65
2023/01/15 07:14:24;;;;;;;5.30;2.97;;;9.40;99.90;;;;;;5043921;28;20435;-65
2023/01/15 07:16:50;;;;;;;3.00;2.67;;;9.40;99.90;;;;;;5049050;28;20455;-67
2023/01/15 07:19:17;;;;;;;2.90;2.70;;;9.40;99.90;;;;;;5018014;28;20423;-66
2023/01/15 07:21:43;;;;;;;4.00;3.17;;;9.40;99.90;;;;;;5043286;28;20515;-66
2023/01/15 07:24:10;;;;;;;4.60;3.13;;;9.40;99.90;;;;;;5047277;28;20491;-66
2023/01/15 07:26:36;;;;;;;4.87;2.80;;;9.50;99.90;;;;;;5047820;28;20471;-67
2023/01/15 07:29:03;;;;;;;4.97;3.10;;;9.40;99.90;;;;;;5049702;28;20922;-65
2023/01/15 07:31:29;;;;;;;4.50;3.40;;;9.30;99.90;;;;;;5025009;28;20979;-65
2023/01/15 07:33:55;;;;;;;5.07;2.70;;;9.30;99.90;;;;;;5044424;28;20436;-65
2023/01/15 07:36:22;;;;;;;3.30;2.77;;;9.40;99.90;;;;;;5047245;28;20288;-65
2023/01/15 07:38:47;;;;;;;2.73;2.63;;;9.40;99.90;;;;;;5048931;28;20440;-65
2023/01/15 07:49:44;;;;;;;3.67;2.73;;;9.20;99.90;;;;;;5049527;28;20427;-65
2023/01/15 07:52:15;;;;;;;3.53;2.70;;;9.20;99.90;;;;;;5047815;28;20460;-65
2023/01/15 07:54:42;;;;;;;2.97;2.67;;;9.20;99.90;;;;;;5045357;28;20516;-65
2023/01/15 07:57:08;;;;;;;4.03;3.07;;;9.20;99.90;;;;;;5039582;28;20470;-65
2023/01/15 07:59:34;;;;;;;6.10;3.80;;;9.10;99.90;;;;;;5054337;28;20421;-65
2023/01/15 08:02:00;;;;;;;3.57;2.73;;;9.00;99.90;;;;;;5053544;28;20821;-65
2023/01/15 08:04:25;;;;;;;5.17;2.67;;;9.00;99.90;;;;;;5054129;28;20190;-65
2023/01/15 08:06:51;;;;;;;2.70;2.50;;;9.10;99.90;;;;;;5052610;28;20638;-67
2023/01/15 08:09:17;;;;;;;2.80;2.60;;;9.10;99.90;;;;;;5032297;28;20634;-65
2023/01/15 08:17:12;;;;;;;2.77;2.57;;;9.20;99.90;;;;;;5051058;28;20459;-65
2023/01/15 08:19:37;;;;;;;2.83;2.50;;;9.20;99.90;;;;;;5054227;28;20923;-65
2023/01/15 08:22:03;;;;;;;2.60;2.20;;;9.20;99.90;;;;;;5050257;28;20182;-66
2023/01/15 08:24:29;;;;;;;3.07;2.77;;;9.20;99.90;;;;;;5052177;28;20182;-66
2023/01/15 08:26:55;;;;;;;2.80;2.60;;;9.10;99.90;;;;;;5049866;28;20188;-67
2023/01/15 08:29:21;;;;;;;5.23;2.70;;;9.20;99.90;;;;;;5034542;28;20273;-66
2023/01/15 08:31:47;;;;;;;3.60;3.37;;;9.10;99.90;;;;;;5052073;28;20173;-67
2023/01/15 08:34:14;;;;;;;3.20;2.90;;;9.10;99.90;;;;;;5050500;28;20447;-66
2023/01/15 08:36:39;;;;;;;2.77;2.67;;;9.10;99.90;;;;;;5047988;28;20491;-66
2023/01/15 08:39:05;;;;;;;2.30;2.10;;;9.10;99.90;;;;;;5047790;28;20432;-67
2023/01/15 08:41:31;;;;;;;2.20;2.10;;;9.10;99.90;;;;;;5051381;28;20233;-68
2023/01/15 08:43:56;;;;;;;2.83;2.30;;;9.00;99.90;;;;;;5049199;28;20257;-68
2023/01/15 08:46:22;;;;;;;4.47;2.27;;;9.00;99.90;;;;;;5052222;28;20539;-65
2023/01/15 08:48:48;;;;;;;4.03;2.20;;;9.10;99.90;;;;;;5052477;28;20412;-66
2023/01/15 08:51:14;;;;;;;3.43;2.60;;;9.10;99.90;;;;;;5051779;28;20193;-65
2023/01/15 08:53:40;;;;;;;2.57;2.33;;;9.10;99.90;;;;;;5050126;28;20189;-66
2023/01/15 08:56:16;;;;;;;3.00;2.30;;;9.10;99.90;;;;;;5050871;28;20460;-66
2023/01/15 08:58:42;;;;;;;2.90;2.20;;;9.20;99.90;;;;;;5046645;28;20439;-66
2023/01/15 09:01:10;;;;;;;4.73;2.93;;;9.20;99.90;;;;;;5045346;28;20460;-66
2023/01/15 09:03:36;;;;;;;5.20;2.07;;;9.20;99.90;;;;;;5044166;28;20428;-66
2023/01/15 09:06:03;;;;;;;4.30;2.40;;;9.10;99.90;;;;;;5052148;28;20427;-66
2023/01/15 09:08:28;;;;;;;2.10;2.00;;;9.00;99.90;;;;;;5047368;28;20432;-66
2023/01/15 09:10:59;;;;;;;3.50;1.80;;;9.10;99.90;;;;;;5051160;28;20806;-65
2023/01/15 09:13:25;;;;;;;3.97;2.10;;;9.50;99.90;;;;;;5052744;28;20463;-66
2023/01/15 09:15:51;;;;;;;4.10;2.30;;;9.00;99.90;;;;;;5051894;28;20470;-67
2023/01/15 09:18:19;;;;;;;2.13;2.00;;;9.00;99.90;;;;;;5047222;28;20522;-67
2023/01/15 09:20:48;;;;;;;2.00;1.90;;;9.00;99.90;;;;;;5051596;28;20615;-67
2023/01/15 09:23:14;;;;;;;2.17;2.00;;;8.90;99.90;;;;;;5050281;28;20482;-66
2023/01/15 09:25:49;;;;;;;3.37;2.20;;;8.90;99.90;;;;;;5056117;28;20432;-69
2023/01/15 09:28:15;;;;;;;2.20;2.10;;;9.00;99.90;;;;;;5043875;28;20432;-67
2023/01/15 09:30:40;;;;;;;6.87;2.00;;;9.00;99.90;;;;;;5051513;28;20474;-66
2023/01/15 09:33:06;;;;;;;2.10;2.00;;;9.00;99.90;;;;;;5051774;28;20206;-66
2023/01/15 09:35:32;;;;;;;2.33;2.13;;;9.00;99.90;;;;;;5047504;28;20208;-67
2023/01/15 09:37:57;;;;;;;3.70;2.10;;;8.90;99.90;;;;;;5048057;28;20212;-67
2023/01/15 09:40:37;;;;;;;2.90;2.70;;;8.90;99.90;;;;;;5052215;28;20232;-67
2023/01/15 09:43:17;;;;;;;3.27;2.97;;;8.90;99.90;;;;;;5051755;28;20188;-66
2023/01/15 09:45:51;;;;;;;3.93;2.90;;;8.90;99.90;;;;;;5052336;28;20827;-66
2023/01/15 09:48:37;;;;;;;3.90;2.83;;;8.80;99.90;;;;;;5053550;28;20388;-66
2023/01/15 09:51:19;;;;;;;2.77;2.47;;;8.80;99.90;;;;;;5051454;28;20923;-67
2023/01/15 09:54:07;;;;;;;4.00;2.53;;;8.90;99.90;;;;;;5051750;28;20443;-66
2023/01/15 09:56:36;;;;;;;4.10;2.50;;;9.50;99.90;;;;;;5050420;28;20531;-67
2023/01/15 09:59:31;;;;;;;3.33;2.90;;;10.10;99.80;;;;;;5047960;28;20426;-67
2023/01/15 10:01:57;;;;;;;2.70;2.50;;;10.40;99.40;;;;;;5049699;28;20471;-67
2023/01/15 10:04:47;;;;;;;3.10;2.90;;;11.00;98.40;;;;;;5050479;28;20437;-66
2023/01/15 10:07:27;;;;;;;3.90;2.47;;;11.20;96.30;;;;;;5049027;28;20422;-66
2023/01/15 10:10:03;;;;;;;3.47;3.10;;;11.10;96.00;;;;;;5049980;28;20439;-67
2023/01/15 10:12:34;;;;;;;3.80;2.47;;;11.00;95.00;;;;;;5051720;28;20439;-67
2023/01/15 10:15:24;;;;;;;3.07;2.57;;;10.90;95.70;;;;;;5051674;28;20903;-67
2023/01/15 10:17:55;;;;;;;2.43;2.33;;;11.00;97.30;;;;;;5047746;28;20420;-68
2023/01/15 10:20:40;;;;;;;2.57;2.40;;;11.30;96.20;;;;;;5043975;28;20432;-67
2023/01/15 10:23:38;;;;;;;2.37;2.20;;;11.40;95.90;;;;;;5050072;28;20423;-67
2023/01/15 10:26:33;;;;;;;4.20;2.50;;;11.30;95.70;;;;;;5049701;28;20440;-67
2023/01/15 10:29:26;;;;;;;2.37;2.27;;;11.00;96.10;;;;;;5030323;28;20442;-67
2023/01/15 10:32:31;;;;;;;2.80;2.60;;;10.60;96.40;;;;;;5047662;28;20425;-67
2023/01/15 10:35:09;;;;;;;2.90;2.20;;;10.50;96.90;;;;;;5047762;28;20509;-68
2023/01/15 10:37:40;;;;;;;4.57;2.40;;;10.40;97.50;;;;;;5050521;28;20441;-68
2023/01/15 10:40:35;;;;;;;3.70;2.93;;;10.40;98.00;;;;;;5044171;28;20479;-68
2023/01/15 10:43:23;;;;;;;3.17;2.87;;;10.50;98.50;;;;;;5041368;28;20469;-66
2023/01/15 10:45:54;;;;;;;4.27;2.93;;;10.40;97.50;;;;;;5045305;28;20449;-66
2023/01/15 10:48:27;;;;;;;3.57;2.60;;;10.70;98.40;;;;;;5049996;28;20946;-67
2023/01/15 10:50:54;;;;;;;2.87;2.40;;;10.80;97.30;;;;;;5049966;28;20430;-67
2023/01/15 10:53:32;;;;;;;2.80;2.60;;;10.70;97.00;;;;;;5048361;28;20492;-66
2023/01/15 10:56:17;;;;;;;3.73;2.60;;;10.60;97.30;;;;;;5050481;28;20442;-67
2023/01/15 10:58:53;;;;;;;3.60;2.67;;;10.40;96.40;;;;;;5041121;28;20536;-67
2023/01/15 11:01:22;;;;;;;3.13;2.90;;;10.30;97.70;;;;;;5049046;28;20453;-67
2023/01/15 11:03:48;;;;;;;3.50;3.20;;;10.20;97.10;;;;;;5050663;28;20404;-67
2023/01/15 11:06:16;;;;;;;2.93;2.30;;;10.10;97.70;;;;;;5049296;28;20927;-67
2023/01/15 11:08:47;;;;;;;3.10;2.90;;;10.00;97.90;;;;;;5047454;28;20532;-67
2023/01/15 11:19:40;;;;;;;3.10;2.90;;;10.20;97.00;;;;;;5049858;28;20512;-69
2023/01/15 11:22:17;;;;;;;3.03;2.80;;;10.00;97.20;;;;;;5047822;28;20436;-67
2023/01/15 11:24:59;;;;;;;5.73;2.97;;;10.00;96.80;;;;;;5048366;28;20409;-67
2023/01/15 11:27:32;;;;;;;3.13;2.90;;;9.90;97.80;;;;;;5049620;28;20419;-67
2023/01/15 11:30:00;;;;;;;3.40;3.10;;;9.80;97.60;;;;;;5048533;28;20895;-67
2023/01/15 11:32:37;;;;;;;6.23;3.20;;;9.70;98.30;;;;;;5052551;28;20562;-67
2023/01/15 11:35:17;;;;;;;3.13;2.90;;;9.70;98.40;;;;;;5051207;28;20435;-67
2023/01/15 11:37:43;;;;;;;3.43;2.60;;;9.60;99.10;;;;;;5049502;28;20431;-67
2023/01/15 11:40:22;;;;;;;3.03;2.80;;;9.60;98.30;;;;;;5050583;28;20487;-67
2023/01/15 11:51:08;;;;;;;3.83;3.00;;;9.40;98.40;;;;;;5052000;28;20636;-68
2023/01/15 11:53:48;;;;;;;36.03;23.37;;;9.40;98.20;;;;;;5054135;28;20446;-67
2023/01/15 11:56:19;;;;;;;71.60;43.83;;;9.40;98.50;;;;;;5050696;28;20564;-67
2023/01/15 11:58:51;;;;;;;3.07;2.87;;;9.50;98.80;;;;;;5053063;28;20421;-68
2023/01/15 12:01:31;;;;;;;4.80;3.23;;;9.50;99.30;;;;;;5052936;28;20511;-68
2023/01/15 12:03:59;;;;;;;2.87;2.57;;;9.60;98.90;;;;;;5051799;28;20400;-68
2023/01/15 12:06:26;;;;;;;5.37;2.93;;;9.50;97.70;;;;;;5052699;28;20478;-68
2023/01/15 12:09:06;;;;;;;2.83;2.63;;;9.50;97.20;;;;;;5052137;28;20436;-68
2023/01/15 12:11:43;;;;;;;3.40;3.20;;;9.40;96.90;;;;;;5051762;28;20412;-67
2023/01/15 12:14:34;;;;;;;7.43;3.40;;;9.40;97.10;;;;;;5049534;28;20749;-67
2023/01/15 12:17:27;;;;;;;3.20;2.90;;;9.40;98.40;;;;;;5051024;28;20504;-68
2023/01/15 12:20:05;;;;;;;4.63;2.50;;;9.40;98.70;;;;;;5051178;28;20835;-68
2023/01/15 12:22:58;;;;;;;3.50;2.03;;;9.40;98.60;;;;;;5050793;28;20428;-68
2023/01/15 12:25:46;;;;;;;5.53;3.10;;;9.40;99.10;;;;;;5051774;28;20436;-69
2023/01/15 12:28:16;;;;;;;2.60;2.40;;;9.40;99.90;;;;;;5048334;28;20424;-69
2023/01/15 12:31:07;;;;;;;2.93;2.73;;;9.50;99.90;;;;;;5052385;28;20389;-68
2023/01/15 12:33:54;;;;;;;6.00;3.17;;;9.60;99.90;;;;;;5051734;28;20432;-69
2023/01/15 12:36:21;;;;;;;5.17;2.80;;;9.90;99.90;;;;;;5050923;28;20461;-69
2023/01/15 12:39:19;;;;;;;3.10;2.93;;;10.20;99.90;;;;;;5051979;28;20482;-69
2023/01/15 12:45:07;;;;;;;4.07;3.13;;;10.80;99.90;;;;;;5052380;28;20927;-69
2023/01/15 12:47:56;;;;;;;4.40;2.80;;;10.90;99.90;;;;;;5049818;28;20442;-69
2023/01/15 12:50:35;;;;;;;3.23;3.03;;;10.90;98.90;;;;;;5051626;28;20515;-71
2023/01/15 12:53:15;;;;;;;4.30;3.13;;;11.10;99.90;;;;;;5048402;28;20447;-68
2023/01/15 12:55:49;;;;;;;2.60;2.40;;;11.10;94.60;;;;;;5052316;28;20556;-68
2023/01/15 12:58:37;;;;;;;4.70;2.93;;;10.80;93.80;;;;;;5052184;28;20431;-67
2023/01/15 13:01:26;;;;;;;3.20;2.83;;;10.30;94.90;;;;;;5051196;28;20421;-67
2023/01/15 13:03:57;;;;;;;2.90;2.70;;;10.10;96.30;;;;;;5046525;28;20511;-69
2023/01/15 13:06:27;;;;;;;5.90;2.50;;;9.90;97.50;;;;;;5048965;28;20764;-68
2023/01/15 13:09:22;;;;;;;4.30;3.00;;;9.80;97.50;;;;;;5030542;28;20420;-68
2023/01/15 13:11:47;;;;;;;7.73;2.47;;;9.70;97.30;;;;;;5034070;28;20449;-67
2023/01/15 13:14:18;;;;;;;2.63;2.53;;;9.60;97.80;;;;;;5039721;28;20628;-68
2023/01/15 13:17:19;;;;;;;3.30;2.50;;;9.50;98.10;;;;;;5044959;28;20201;-68
2023/01/15 13:20:04;;;;;;;5.67;2.67;;;9.30;99.00;;;;;;5030594;28;20464;-68
2023/01/15 13:22:36;;;;;;;56.00;32.60;;;9.30;99.30;;;;;;5042418;28;20436;-67
2023/01/15 13:25:38;;;;;;;4.13;3.73;;;9.50;99.70;;;;;;5038007;28;20479;-67
2023/01/15 13:28:32;;;;;;;2.47;2.33;;;9.40;98.20;;;;;;5048662;28;20509;-68
2023/01/15 13:31:17;;;;;;;3.90;2.87;;;9.50;98.60;;;;;;5036263;28;20445;-68
2023/01/15 13:33:49;;;;;;;3.10;2.60;;;9.50;98.60;;;;;;5049840;28;20783;-68
2023/01/15 13:36:36;;;;;;;3.30;2.40;;;9.50;99.50;;;;;;5051117;28;20464;-68
2023/01/15 13:39:05;;;;;;;2.90;2.70;;;9.50;99.00;;;;;;5046012;28;20433;-68
2023/01/15 13:44:23;;;;;;;2.10;2.00;;;9.40;98.80;;;;;;5050089;28;20494;-68
2023/01/15 13:47:04;;;;;;;2.43;2.23;;;9.40;98.70;;;;;;5047969;28;20436;-68
2023/01/15 13:49:47;;;;;;;5.27;2.63;;;9.30;99.50;;;;;;5046872;28;20937;-68
2023/01/15 13:52:40;;;;;;;7.03;2.50;;;9.30;99.00;;;;;;5044077;28;20436;-68
2023/01/15 13:55:14;;;;;;;184.83;82.43;;;9.40;99.10;;;;;;5046235;28;20417;-68
2023/01/15 13:57:42;;;;;;;15.50;10.40;;;9.30;99.30;;;;;;5047131;28;20440;-68
2023/01/15 14:00:36;;;;;;;2.90;2.70;;;9.40;99.00;;;;;;5046131;28;20440;-68
2023/01/15 14:03:22;;;;;;;4.40;2.70;;;9.40;98.30;;;;;;5047113;28;20439;-68
2023/01/15 14:06:17;;;;;;;5.70;2.70;;;9.40;98.20;;;;;;5051273;28;20412;-68
2023/01/15 14:08:44;;;;;;;3.60;3.20;;;9.30;98.40;;;;;;5040808;28;20509;-69
2023/01/15 14:11:36;;;;;;;2.97;2.67;;;9.40;99.20;;;;;;5049363;28;20435;-69
2023/01/15 14:14:32;;;;;;;3.67;2.53;;;9.40;98.60;;;;;;5047207;28;20435;-67